sensor_id;sensor_type;location;lat;lon;timestamp;pressure;altitude;pressure_sealevel;temperature;humidity
43119;BME280;28729;49.838;8.650;2024-02-26T00:02:39;97882.09;;;9.36;68.78
43119;BME280;28729;49.838;8.650;2024-02-26T00:06:42;97873.91;;;9.31;69.59
43119;BME280;28729;49.838;8.650;2024-02-26T00:10:46;97867.59;;;9.30;69.19
43119;BME280;28729;49.838;8.650;2024-02-26T00:14:48;97854.41;;;9.27;68.99
43119;BME280;28729;49.838;8.650;2024-02-26T00:18:53;97868.69;;;9.29;69.24
43119;BME280;28729;49.838;8.650;2024-02-26T00:22:56;97848.34;;;9.30;68.94
43119;BME280;28729;49.838;8.650;2024-02-26T00:26:59;97831.03;;;9.30;69.19
43119;BME280;28729;49.838;8.650;2024-02-26T00:31:04;97823.38;;;9.27;69.28
43119;BME280;28729;49.838;8.650;2024-02-26T00:35:07;97840.22;;;9.20;69.81
43119;BME280;28729;49.838;8.650;2024-02-26T00:39:12;97838.59;;;9.19;70.23
43119;BME280;28729;49.838;8.650;2024-02-26T00:43:15;97841.06;;;9.16;70.04
43119;BME280;28729;49.838;8.650;2024-02-26T00:47:23;97849.06;;;9.12;70.09
43119;BME280;28729;49.838;8.650;2024-02-26T00:51:25;97848.72;;;9.19;69.79
43119;BME280;28729;49.838;8.650;2024-02-26T00:55:28;97847.91;;;9.18;69.66
43119;BME280;28729;49.838;8.650;2024-02-26T00:59:30;97875.97;;;9.15;69.46
43119;BME280;28729;49.838;8.650;2024-02-26T01:03:33;97885.34;;;9.14;69.74
43119;BME280;28729;49.838;8.650;2024-02-26T01:07:35;97877.34;;;9.12;69.98
43119;BME280;28729;49.838;8.650;2024-02-26T01:11:38;97866.16;;;9.04;70.75
43119;BME280;28729;49.838;8.650;2024-02-26T01:15:40;97847.56;;;8.96;71.74
43119;BME280;28729;49.838;8.650;2024-02-26T01:19:43;97849.47;;;8.95;72.19
43119;BME280;28729;49.838;8.650;2024-02-26T01:23:44;97845.97;;;8.89;71.52
43119;BME280;28729;49.838;8.650;2024-02-26T01:27:46;97861.03;;;8.92;70.99
43119;BME280;28729;49.838;8.650;2024-02-26T01:31:48;97872.28;;;8.96;70.63
43119;BME280;28729;49.838;8.650;2024-02-26T01:35:50;97878.63;;;8.91;70.65
43119;BME280;28729;49.838;8.650;2024-02-26T01:39:52;97881.63;;;8.95;71.10
43119;BME280;28729;49.838;8.650;2024-02-26T01:43:54;97888.78;;;8.96;70.98
43119;BME280;28729;49.838;8.650;2024-02-26T01:47:56;97887.13;;;8.95;71.74
43119;BME280;28729;49.838;8.650;2024-02-26T01:51:58;97885.50;;;8.94;72.18
43119;BME280;28729;49.838;8.650;2024-02-26T01:56:01;97900.91;;;8.89;72.62
43119;BME280;28729;49.838;8.650;2024-02-26T02:00:03;97884.16;;;8.86;72.86
43119;BME280;28729;49.838;8.650;2024-02-26T02:04:09;97889.72;;;8.81;73.63
43119;BME280;28729;49.838;8.650;2024-02-26T02:08:11;97886.19;;;8.75;74.30
43119;BME280;28729;49.838;8.650;2024-02-26T02:12:13;97894.69;;;8.74;74.50
43119;BME280;28729;49.838;8.650;2024-02-26T02:16:16;97905.66;;;8.74;74.20
43119;BME280;28729;49.838;8.650;2024-02-26T02:20:18;97908.41;;;8.74;74.52
43119;BME280;28729;49.838;8.650;2024-02-26T02:24:20;97906.78;;;8.73;74.62
43119;BME280;28729;49.838;8.650;2024-02-26T02:28:23;97907.91;;;8.72;74.92
43119;BME280;28729;49.838;8.650;2024-02-26T02:32:29;97918.03;;;8.71;75.13
43119;BME280;28729;49.838;8.650;2024-02-26T02:36:31;97923.28;;;8.67;76.09
43119;BME280;28729;49.838;8.650;2024-02-26T02:40:33;97927.13;;;8.66;75.98
43119;BME280;28729;49.838;8.650;2024-02-26T02:44:35;97921.41;;;8.63;76.74
43119;BME280;28729;49.838;8.650;2024-02-26T02:48:37;97925.22;;;8.62;76.49
43119;BME280;28729;49.838;8.650;2024-02-26T02:52:39;97938.72;;;8.58;76.95
43119;BME280;28729;49.838;8.650;2024-02-26T02:56:41;97937.88;;;8.58;77.07
43119;BME280;28729;49.838;8.650;2024-02-26T03:00:44;97940.09;;;8.56;76.96
43119;BME280;28729;49.838;8.650;2024-02-26T03:04:46;97940.06;;;8.61;76.49
43119;BME280;28729;49.838;8.650;2024-02-26T03:08:49;97938.69;;;8.63;76.56
43119;BME280;28729;49.838;8.650;2024-02-26T03:12:51;97941.44;;;8.63;76.13
43119;BME280;28729;49.838;8.650;2024-02-26T03:16:54;97950.16;;;8.71;76.46
43119;BME280;28729;49.838;8.650;2024-02-26T03:20:56;97944.09;;;8.74;76.68
43119;BME280;28729;49.838;8.650;2024-02-26T03:25:00;97951.78;;;8.77;76.70
43119;BME280;28729;49.838;8.650;2024-02-26T03:29:02;97954.25;;;8.78;77.23
43119;BME280;28729;49.838;8.650;2024-02-26T03:33:05;97960.03;;;8.77;78.37
43119;BME280;28729;49.838;8.650;2024-02-26T03:37:07;97961.69;;;8.73;80.25
43119;BME280;28729;49.838;8.650;2024-02-26T03:41:11;97941.69;;;8.67;83.05
43119;BME280;28729;49.838;8.650;2024-02-26T03:45:13;97952.44;;;8.58;85.74
43119;BME280;28729;49.838;8.650;2024-02-26T03:49:15;97948.09;;;8.47;89.18
43119;BME280;28729;49.838;8.650;2024-02-26T03:53:24;97953.06;;;8.35;91.79
43119;BME280;28729;49.838;8.650;2024-02-26T03:57:27;97947.63;;;8.25;93.01
43119;BME280;28729;49.838;8.650;2024-02-26T04:01:30;97953.41;;;8.13;98.05
43119;BME280;28729;49.838;8.650;2024-02-26T04:05:31;97951.53;;;7.98;97.93
43119;BME280;28729;49.838;8.650;2024-02-26T04:09:33;97955.09;;;7.93;99.64
43119;BME280;28729;49.838;8.650;2024-02-26T04:13:36;97957.03;;;7.93;100.00
43119;BME280;28729;49.838;8.650;2024-02-26T04:17:39;97961.44;;;7.89;100.00
43119;BME280;28729;49.838;8.650;2024-02-26T04:21:42;97947.19;;;7.87;100.00
43119;BME280;28729;49.838;8.650;2024-02-26T04:25:44;97948.00;;;7.82;100.00
43119;BME280;28729;49.838;8.650;2024-02-26T04:29:46;97947.72;;;7.79;100.00
43119;BME280;28729;49.838;8.650;2024-02-26T04:33:48;97941.72;;;7.76;100.00
43119;BME280;28729;49.838;8.650;2024-02-26T04:37:50;97940.91;;;7.71;100.00
43119;BME280;28729;49.838;8.650;2024-02-26T04:41:52;97947.22;;;7.71;100.00
43119;BME280;28729;49.838;8.650;2024-02-26T04:45:57;97944.47;;;7.61;100.00
43119;BME280;28729;49.838;8.650;2024-02-26T04:49:59;97944.22;;;7.58;100.00
43119;BME280;28729;49.838;8.650;2024-02-26T04:54:01;97947.50;;;7.54;100.00
43119;BME280;28729;49.838;8.650;2024-02-26T04:58:06;97946.97;;;7.47;100.00
43119;BME280;28729;49.838;8.650;2024-02-26T05:02:08;97948.34;;;7.50;100.00
43119;BME280;28729;49.838;8.650;2024-02-26T05:06:13;97939.81;;;7.51;100.00
43119;BME280;28729;49.838;8.650;2024-02-26T05:10:15;97934.91;;;7.53;100.00
43119;BME280;28729;49.838;8.650;2024-02-26T05:14:18;97942.00;;;7.54;100.00
43119;BME280;28729;49.838;8.650;2024-02-26T05:18:24;97936.28;;;7.51;100.00
43119;BME280;28729;49.838;8.650;2024-02-26T05:22:33;97943.13;;;7.48;100.00
43119;BME280;28729;49.838;8.650;2024-02-26T05:26:35;97932.72;;;7.45;100.00
43119;BME280;28729;49.838;8.650;2024-02-26T05:30:37;97929.97;;;7.45;100.00
43119;BME280;28729;49.838;8.650;2024-02-26T05:34:42;97932.72;;;7.45;100.00
43119;BME280;28729;49.838;8.650;2024-02-26T05:38:44;97925.03;;;7.42;100.00
43119;BME280;28729;49.838;8.650;2024-02-26T05:42:49;97931.88;;;7.40;100.00
43119;BME280;28729;49.838;8.650;2024-02-26T05:46:51;97928.88;;;7.36;100.00
43119;BME280;28729;49.838;8.650;2024-02-26T05:50:53;97932.44;;;7.31;100.00
43119;BME280;28729;49.838;8.650;2024-02-26T05:55:00;97933.53;;;7.30;100.00
43119;BME280;28729;49.838;8.650;2024-02-26T05:59:02;97931.91;;;7.24;100.00
43119;BME280;28729;49.838;8.650;2024-02-26T06:03:04;97932.44;;;7.21;100.00
43119;BME280;28729;49.838;8.650;2024-02-26T06:07:06;97941.78;;;7.20;100.00
43119;BME280;28729;49.838;8.650;2024-02-26T06:11:09;97940.09;;;7.19;100.00
43119;BME280;28729;49.838;8.650;2024-02-26T06:15:11;97948.91;;;7.11;100.00
43119;BME280;28729;49.838;8.650;2024-02-26T06:19:13;97952.72;;;7.10;100.00
43119;BME280;28729;49.838;8.650;2024-02-26T06:23:16;97963.41;;;7.12;100.00
43119;BME280;28729;49.838;8.650;2024-02-26T06:27:19;97968.06;;;7.11;100.00
43119;BME280;28729;49.838;8.650;2024-02-26T06:31:23;97979.28;;;7.15;100.00
43119;BME280;28729;49.838;8.650;2024-02-26T06:35:26;97990.25;;;7.15;100.00
43119;BME280;28729;49.838;8.650;2024-02-26T06:39:29;97980.09;;;7.15;100.00
43119;BME280;28729;49.838;8.650;2024-02-26T06:43:32;98006.69;;;7.20;100.00
43119;BME280;28729;49.838;8.650;2024-02-26T06:47:35;98003.66;;;7.21;100.00
43119;BME280;28729;49.838;8.650;2024-02-26T06:51:37;98000.94;;;7.21;100.00
43119;BME280;28729;49.838;8.650;2024-02-26T06:55:39;98017.09;;;7.28;100.00
43119;BME280;28729;49.838;8.650;2024-02-26T06:59:42;98022.59;;;7.33;100.00
43119;BME280;28729;49.838;8.650;2024-02-26T07:03:48;98018.50;;;7.36;100.00
43119;BME280;28729;49.838;8.650;2024-02-26T07:07:49;98039.03;;;7.38;100.00
43119;BME280;28729;49.838;8.650;2024-02-26T07:11:52;98045.34;;;7.39;100.00
43119;BME280;28729;49.838;8.650;2024-02-26T07:15:57;98052.19;;;7.41;100.00
43119;BME280;28729;49.838;8.650;2024-02-26T07:20:00;98052.19;;;7.46;100.00
43119;BME280;28729;49.838;8.650;2024-02-26T07:24:04;98060.16;;;7.53;100.00
43119;BME280;28729;49.838;8.650;2024-02-26T07:28:06;98062.91;;;7.53;100.00
43119;BME280;28729;49.838;8.650;2024-02-26T07:32:10;98063.19;;;7.57;100.00
43119;BME280;28729;49.838;8.650;2024-02-26T07:36:13;98056.03;;;7.61;100.00
43119;BME280;28729;49.838;8.650;2024-02-26T07:40:15;98056.31;;;7.64;100.00
43119;BME280;28729;49.838;8.650;2024-02-26T07:44:23;98055.22;;;7.75;100.00
43119;BME280;28729;49.838;8.650;2024-02-26T07:48:32;98065.38;;;7.90;100.00
43119;BME280;28729;49.838;8.650;2024-02-26T07:52:38;98060.44;;;7.97;100.00
43119;BME280;28729;49.838;8.650;2024-02-26T07:56:42;98068.94;;;8.06;100.00
43119;BME280;28729;49.838;8.650;2024-02-26T08:00:45;98073.88;;;8.09;100.00
43119;BME280;28729;49.838;8.650;2024-02-26T08:04:48;98075.78;;;8.19;100.00
43119;BME280;28729;49.838;8.650;2024-02-26T08:08:51;98070.25;;;8.29;100.00
43119;BME280;28729;49.838;8.650;2024-02-26T08:12:53;98082.63;;;8.42;100.00
43119;BME280;28729;49.838;8.650;2024-02-26T08:16:55;98078.47;;;8.50;100.00
43119;BME280;28729;49.838;8.650;2024-02-26T08:20:57;98084.50;;;8.52;100.00
43119;BME280;28729;49.838;8.650;2024-02-26T08:25:01;98093.28;;;8.59;100.00
43119;BME280;28729;49.838;8.650;2024-02-26T08:29:10;98100.69;;;8.63;100.00
43119;BME280;28729;49.838;8.650;2024-02-26T08:33:16;98091.88;;;8.66;100.00
43119;BME280;28729;49.838;8.650;2024-02-26T08:37:21;98091.59;;;8.73;100.00
43119;BME280;28729;49.838;8.650;2024-02-26T08:41:23;98098.94;;;8.83;100.00
43119;BME280;28729;49.838;8.650;2024-02-26T08:45:27;98095.13;;;8.84;100.00
43119;BME280;28729;49.838;8.650;2024-02-26T08:49:31;98089.66;;;8.79;100.00
43119;BME280;28729;49.838;8.650;2024-02-26T08:53:34;98097.88;;;8.79;100.00
43119;BME280;28729;49.838;8.650;2024-02-26T08:57:44;98109.72;;;8.69;100.00
43119;BME280;28729;49.838;8.650;2024-02-26T09:01:48;98097.63;;;8.75;100.00
43119;BME280;28729;49.838;8.650;2024-02-26T09:05:51;98102.56;;;8.83;100.00
43119;BME280;28729;49.838;8.650;2024-02-26T09:09:56;98095.63;;;8.91;100.00
43119;BME280;28729;49.838;8.650;2024-02-26T09:13:58;98094.75;;;9.06;100.00
43119;BME280;28729;49.838;8.650;2024-02-26T09:18:01;98105.09;;;9.24;100.00
43119;BME280;28729;49.838;8.650;2024-02-26T09:22:05;98105.88;;;9.35;100.00
43119;BME280;28729;49.838;8.650;2024-02-26T09:26:08;98094.84;;;9.40;100.00
43119;BME280;28729;49.838;8.650;2024-02-26T09:30:11;98086.78;;;9.54;100.00
43119;BME280;28729;49.838;8.650;2024-02-26T09:34:19;98094.34;;;9.72;100.00
43119;BME280;28729;49.838;8.650;2024-02-26T09:38:22;98104.94;;;9.94;100.00
43119;BME280;28729;49.838;8.650;2024-02-26T09:42:26;98113.06;;;10.10;100.00
43119;BME280;28729;49.838;8.650;2024-02-26T09:46:28;98132.31;;;10.10;100.00
43119;BME280;28729;49.838;8.650;2024-02-26T09:50:33;98125.91;;;10.19;100.00
43119;BME280;28729;49.838;8.650;2024-02-26T09:54:35;98123.41;;;10.52;100.00
43119;BME280;28729;49.838;8.650;2024-02-26T09:58:43;98134.25;;;10.97;100.00
43119;BME280;28729;49.838;8.650;2024-02-26T10:02:55;98130.59;;;11.25;100.00
43119;BME280;28729;49.838;8.650;2024-02-26T10:06:59;98137.81;;;11.21;100.00
43119;BME280;28729;49.838;8.650;2024-02-26T10:11:10;98126.28;;;11.38;100.00
43119;BME280;28729;49.838;8.650;2024-02-26T10:15:12;98133.91;;;11.46;100.00
43119;BME280;28729;49.838;8.650;2024-02-26T10:19:27;98142.81;;;11.81;100.00
43119;BME280;28729;49.838;8.650;2024-02-26T10:23:32;98142.09;;;12.27;100.00
43119;BME280;28729;49.838;8.650;2024-02-26T10:27:34;98140.66;;;12.62;95.90
43119;BME280;28729;49.838;8.650;2024-02-26T10:31:42;98141.09;;;12.83;96.57
43119;BME280;28729;49.838;8.650;2024-02-26T10:35:47;98139.06;;;12.89;92.95
43119;BME280;28729;49.838;8.650;2024-02-26T10:39:50;98157.44;;;12.66;91.09
43119;BME280;28729;49.838;8.650;2024-02-26T10:43:52;98153.97;;;12.60;90.04
43119;BME280;28729;49.838;8.650;2024-02-26T10:47:54;98148.84;;;12.53;93.33
43119;BME280;28729;49.838;8.650;2024-02-26T10:51:56;98159.28;;;12.57;94.75
43119;BME280;28729;49.838;8.650;2024-02-26T10:56:06;98171.16;;;12.57;93.59
43119;BME280;28729;49.838;8.650;2024-02-26T11:00:10;98157.53;;;12.61;95.29
43119;BME280;28729;49.838;8.650;2024-02-26T11:04:16;98167.28;;;12.72;95.30
43119;BME280;28729;49.838;8.650;2024-02-26T11:08:20;98166.94;;;13.06;94.68
43119;BME280;28729;49.838;8.650;2024-02-26T11:12:29;98175.38;;;13.42;91.51
43119;BME280;28729;49.838;8.650;2024-02-26T11:16:34;98169.81;;;13.56;90.33
43119;BME280;28729;49.838;8.650;2024-02-26T11:20:38;98174.84;;;13.54;89.02
43119;BME280;28729;49.838;8.650;2024-02-26T11:24:43;98178.94;;;13.57;89.57
43119;BME280;28729;49.838;8.650;2024-02-26T11:28:45;98168.78;;;13.66;88.05
43119;BME280;28729;49.838;8.650;2024-02-26T11:32:49;98173.75;;;13.91;84.88
43119;BME280;28729;49.838;8.650;2024-02-26T11:36:53;98179.16;;;13.97;82.80
43119;BME280;28729;49.838;8.650;2024-02-26T11:40:56;98185.25;;;13.85;81.62
43119;BME280;28729;49.838;8.650;2024-02-26T11:49:54;98176.75;;;13.81;83.13
43119;BME280;28729;49.838;8.650;2024-02-26T11:53:57;98179.03;;;13.65;83.89
43119;BME280;28729;49.838;8.650;2024-02-26T11:58:01;98180.47;;;13.49;85.39
43119;BME280;28729;49.838;8.650;2024-02-26T12:02:04;98183.38;;;13.30;84.86
43119;BME280;28729;49.838;8.650;2024-02-26T12:06:06;98190.47;;;13.17;82.67
43119;BME280;28729;49.838;8.650;2024-02-26T12:10:23;98193.09;;;13.41;84.46
43119;BME280;28729;49.838;8.650;2024-02-26T12:14:27;98181.91;;;13.74;82.34
43119;BME280;28729;49.838;8.650;2024-02-26T12:18:32;98182.25;;;13.95;81.21
43119;BME280;28729;49.838;8.650;2024-02-26T12:22:34;98192.22;;;14.19;80.31
43119;BME280;28729;49.838;8.650;2024-02-26T12:26:39;98204.47;;;14.40;79.22
43119;BME280;28729;49.838;8.650;2024-02-26T12:30:44;98199.56;;;14.59;79.71
43119;BME280;28729;49.838;8.650;2024-02-26T12:34:45;98217.09;;;14.69;78.37
43119;BME280;28729;49.838;8.650;2024-02-26T12:38:50;98214.59;;;14.58;77.44
43119;BME280;28729;49.838;8.650;2024-02-26T12:42:55;98216.97;;;14.74;76.79
43119;BME280;28729;49.838;8.650;2024-02-26T12:47:03;98218.16;;;14.81;75.12
43119;BME280;28729;49.838;8.650;2024-02-26T12:51:07;98219.03;;;14.91;75.11
43119;BME280;28729;49.838;8.650;2024-02-26T12:55:12;98219.16;;;15.08;73.21
43119;BME280;28729;49.838;8.650;2024-02-26T12:59:16;98228.06;;;14.96;72.07
43119;BME280;28729;49.838;8.650;2024-02-26T13:03:18;98238.13;;;14.92;73.28
43119;BME280;28729;49.838;8.650;2024-02-26T13:07:21;98248.13;;;15.02;73.81
43119;BME280;28729;49.838;8.650;2024-02-26T13:11:23;98247.19;;;15.07;73.12
43119;BME280;28729;49.838;8.650;2024-02-26T13:15:25;98241.47;;;14.80;71.67
43119;BME280;28729;49.838;8.650;2024-02-26T13:19:29;98240.78;;;14.52;72.48
43119;BME280;28729;49.838;8.650;2024-02-26T13:23:32;98246.13;;;14.49;72.96
43119;BME280;28729;49.838;8.650;2024-02-26T13:27:35;98236.25;;;14.56;74.12
43119;BME280;28729;49.838;8.650;2024-02-26T13:31:40;98241.59;;;14.53;73.54
43119;BME280;28729;49.838;8.650;2024-02-26T13:35:46;98251.69;;;14.71;72.58
43119;BME280;28729;49.838;8.650;2024-02-26T13:39:48;98269.25;;;15.12;70.74
43119;BME280;28729;49.838;8.650;2024-02-26T13:43:53;98249.84;;;15.52;68.92
43119;BME280;28729;49.838;8.650;2024-02-26T13:48:02;98263.78;;;16.09;67.78
43119;BME280;28729;49.838;8.650;2024-02-26T13:52:07;98270.09;;;15.83;66.77
43119;BME280;28729;49.838;8.650;2024-02-26T13:56:10;98276.94;;;15.46;67.83
43119;BME280;28729;49.838;8.650;2024-02-26T14:00:12;98281.16;;;15.43;68.13
43119;BME280;28729;49.838;8.650;2024-02-26T14:04:15;98272.63;;;15.31;69.13
43119;BME280;28729;49.838;8.650;2024-02-26T14:08:18;98279.47;;;14.80;69.46
43119;BME280;28729;49.838;8.650;2024-02-26T14:12:20;98274.88;;;14.53;70.12
43119;BME280;28729;49.838;8.650;2024-02-26T14:16:27;98289.19;;;14.19;69.91
43119;BME280;28729;49.838;8.650;2024-02-26T14:20:34;98282.88;;;14.04;70.66
43119;BME280;28729;49.838;8.650;2024-02-26T14:24:36;98287.25;;;14.05;71.77
43119;BME280;28729;49.838;8.650;2024-02-26T14:28:38;98279.13;;;14.23;71.43
43119;BME280;28729;49.838;8.650;2024-02-26T14:32:47;98293.34;;;14.44;70.46
43119;BME280;28729;49.838;8.650;2024-02-26T14:36:52;98291.13;;;14.32;68.94
43119;BME280;28729;49.838;8.650;2024-02-26T14:40:54;98298.34;;;14.19;69.95
43119;BME280;28729;49.838;8.650;2024-02-26T14:44:56;98302.97;;;14.10;71.58
43119;BME280;28729;49.838;8.650;2024-02-26T14:49:00;98306.31;;;14.21;72.16
43119;BME280;28729;49.838;8.650;2024-02-26T14:53:02;98308.84;;;14.58;71.41
43119;BME280;28729;49.838;8.650;2024-02-26T14:57:05;98314.19;;;14.77;70.51
43119;BME280;28729;49.838;8.650;2024-02-26T15:01:09;98309.09;;;14.71;69.54
43119;BME280;28729;49.838;8.650;2024-02-26T15:05:11;98304.59;;;14.25;70.63
43119;BME280;28729;49.838;8.650;2024-02-26T15:09:13;98305.72;;;13.82;72.14
43119;BME280;28729;49.838;8.650;2024-02-26T15:13:15;98309.50;;;13.59;73.80
43119;BME280;28729;49.838;8.650;2024-02-26T15:17:27;98310.53;;;13.49;75.20
43119;BME280;28729;49.838;8.650;2024-02-26T15:21:47;98314.94;;;13.50;75.30
43119;BME280;28729;49.838;8.650;2024-02-26T15:25:52;98309.41;;;13.50;75.39
43119;BME280;28729;49.838;8.650;2024-02-26T15:29:55;98312.97;;;13.37;75.32
43119;BME280;28729;49.838;8.650;2024-02-26T15:34:01;98319.03;;;13.06;76.72
43119;BME280;28729;49.838;8.650;2024-02-26T15:38:10;98324.63;;;13.01;77.41
43119;BME280;28729;49.838;8.650;2024-02-26T15:42:13;98331.31;;;13.00;77.43
43119;BME280;28729;49.838;8.650;2024-02-26T15:46:16;98330.16;;;13.01;77.27
43119;BME280;28729;49.838;8.650;2024-02-26T15:50:30;98332.84;;;13.06;77.54
43119;BME280;28729;49.838;8.650;2024-02-26T15:54:46;98343.59;;;13.08;77.61
43119;BME280;28729;49.838;8.650;2024-02-26T15:59:13;98352.69;;;12.94;78.28
43119;BME280;28729;49.838;8.650;2024-02-26T16:03:46;98374.28;;;12.73;78.55
43119;BME280;28729;49.838;8.650;2024-02-26T16:08:21;98371.66;;;12.63;79.04
43119;BME280;28729;49.838;8.650;2024-02-26T16:12:44;98376.06;;;12.45;80.17
43119;BME280;28729;49.838;8.650;2024-02-26T16:17:31;98379.06;;;12.25;81.61
43119;BME280;28729;49.838;8.650;2024-02-26T16:21:39;98397.38;;;12.21;81.64
43119;BME280;28729;49.838;8.650;2024-02-26T16:25:41;98403.16;;;12.19;81.88
43119;BME280;28729;49.838;8.650;2024-02-26T16:29:43;98412.34;;;12.15;82.34
43119;BME280;28729;49.838;8.650;2024-02-26T16:33:47;98409.19;;;12.02;83.29
43119;BME280;28729;49.838;8.650;2024-02-26T16:37:50;98417.66;;;11.87;84.15
43119;BME280;28729;49.838;8.650;2024-02-26T16:41:52;98419.44;;;11.68;84.55
43119;BME280;28729;49.838;8.650;2024-02-26T16:45:54;98413.31;;;11.47;86.29
43119;BME280;28729;49.838;8.650;2024-02-26T16:49:59;98428.84;;;11.37;86.44
43119;BME280;28729;49.838;8.650;2024-02-26T16:54:02;98440.00;;;11.22;87.50
43119;BME280;28729;49.838;8.650;2024-02-26T16:58:05;98440.63;;;11.09;88.43
43119;BME280;28729;49.838;8.650;2024-02-26T17:02:10;98455.09;;;10.90;89.90
43119;BME280;28729;49.838;8.650;2024-02-26T17:06:16;98450.78;;;10.74;91.23
43119;BME280;28729;49.838;8.650;2024-02-26T17:10:25;98467.38;;;10.59;92.28
43119;BME280;28729;49.838;8.650;2024-02-26T17:14:27;98470.19;;;10.43;93.57
43119;BME280;28729;49.838;8.650;2024-02-26T17:18:33;98480.72;;;10.31;94.41
43119;BME280;28729;49.838;8.650;2024-02-26T17:22:36;98489.50;;;10.23;95.34
43119;BME280;28729;49.838;8.650;2024-02-26T17:26:39;98499.44;;;10.14;96.71
43119;BME280;28729;49.838;8.650;2024-02-26T17:30:45;98514.31;;;10.08;96.78
43119;BME280;28729;49.838;8.650;2024-02-26T17:34:48;98510.50;;;9.98;97.94
43119;BME280;28729;49.838;8.650;2024-02-26T17:38:50;98518.19;;;9.96;98.01
43119;BME280;28729;49.838;8.650;2024-02-26T17:42:55;98524.53;;;9.92;98.68
43119;BME280;28729;49.838;8.650;2024-02-26T17:46:59;98521.25;;;9.85;99.22
43119;BME280;28729;49.838;8.650;2024-02-26T17:51:01;98520.97;;;9.81;100.00
43119;BME280;28729;49.838;8.650;2024-02-26T17:55:11;98536.38;;;9.77;100.00
43119;BME280;28729;49.838;8.650;2024-02-26T17:59:14;98537.19;;;9.77;100.00
43119;BME280;28729;49.838;8.650;2024-02-26T18:03:16;98546.81;;;9.75;100.00
43119;BME280;28729;49.838;8.650;2024-02-26T18:07:18;98549.88;;;9.73;100.00
43119;BME280;28729;49.838;8.650;2024-02-26T18:11:21;98555.91;;;9.70;100.00
43119;BME280;28729;49.838;8.650;2024-02-26T18:15:27;98563.91;;;9.67;100.00
43119;BME280;28729;49.838;8.650;2024-02-26T18:19:34;98569.66;;;9.60;100.00
43119;BME280;28729;49.838;8.650;2024-02-26T18:23:41;98568.00;;;9.59;100.00
43119;BME280;28729;49.838;8.650;2024-02-26T18:27:44;98575.44;;;9.58;100.00
43119;BME280;28729;49.838;8.650;2024-02-26T18:31:46;98575.97;;;9.61;100.00
43119;BME280;28729;49.838;8.650;2024-02-26T18:35:48;98588.38;;;9.58;100.00
43119;BME280;28729;49.838;8.650;2024-02-26T18:39:50;98590.56;;;9.56;100.00
43119;BME280;28729;49.838;8.650;2024-02-26T18:43:52;98591.66;;;9.55;100.00
43119;BME280;28729;49.838;8.650;2024-02-26T18:47:55;98607.59;;;9.53;100.00
43119;BME280;28729;49.838;8.650;2024-02-26T18:51:58;98608.16;;;9.50;100.00
43119;BME280;28729;49.838;8.650;2024-02-26T18:56:00;98613.66;;;9.55;99.95
43119;BME280;28729;49.838;8.650;2024-02-26T19:00:03;98615.56;;;9.54;98.90
43119;BME280;28729;49.838;8.650;2024-02-26T19:04:10;98619.69;;;9.57;97.94
43119;BME280;28729;49.838;8.650;2024-02-26T19:08:12;98618.91;;;9.62;96.73
43119;BME280;28729;49.838;8.650;2024-02-26T19:12:17;98627.44;;;9.65;95.15
43119;BME280;28729;49.838;8.650;2024-02-26T19:16:19;98636.78;;;9.74;93.73
43119;BME280;28729;49.838;8.650;2024-02-26T19:20:21;98648.91;;;9.84;92.37
43119;BME280;28729;49.838;8.650;2024-02-26T19:24:24;98658.56;;;9.91;92.50
43119;BME280;28729;49.838;8.650;2024-02-26T19:28:28;98654.16;;;9.95;91.57
43119;BME280;28729;49.838;8.650;2024-02-26T19:32:32;98659.09;;;9.98;91.47
43119;BME280;28729;49.838;8.650;2024-02-26T19:36:34;98678.63;;;10.02;91.43
43119;BME280;28729;49.838;8.650;2024-02-26T19:40:36;98683.59;;;10.05;91.21
43119;BME280;28729;49.838;8.650;2024-02-26T19:44:39;98675.34;;;10.05;91.57
43119;BME280;28729;49.838;8.650;2024-02-26T19:48:41;98684.44;;;10.06;91.69
43119;BME280;28729;49.838;8.650;2024-02-26T19:52:45;98693.50;;;10.01;92.16
43119;BME280;28729;49.838;8.650;2024-02-26T19:56:48;98692.13;;;9.98;93.42
43119;BME280;28729;49.838;8.650;2024-02-26T20:00:50;98699.00;;;9.96;93.57
43119;BME280;28729;49.838;8.650;2024-02-26T20:04:53;98698.44;;;9.89;94.23
43119;BME280;28729;49.838;8.650;2024-02-26T20:08:55;98716.31;;;9.81;94.95
43119;BME280;28729;49.838;8.650;2024-02-26T20:12:59;98726.75;;;9.74;95.38
43119;BME280;28729;49.838;8.650;2024-02-26T20:17:02;98731.69;;;9.67;95.46
43119;BME280;28729;49.838;8.650;2024-02-26T20:21:06;98742.13;;;9.65;95.73
43119;BME280;28729;49.838;8.650;2024-02-26T20:25:09;98745.41;;;9.62;96.04
43119;BME280;28729;49.838;8.650;2024-02-26T20:29:13;98750.63;;;9.58;96.36
43119;BME280;28729;49.838;8.650;2024-02-26T20:33:15;98751.72;;;9.52;96.49
43119;BME280;28729;49.838;8.650;2024-02-26T20:37:20;98757.47;;;9.50;96.71
43119;BME280;28729;49.838;8.650;2024-02-26T20:41:28;98762.97;;;9.50;97.14
43119;BME280;28729;49.838;8.650;2024-02-26T20:45:31;98771.47;;;9.44;97.53
43119;BME280;28729;49.838;8.650;2024-02-26T20:49:34;98778.34;;;9.46;97.10
43119;BME280;28729;49.838;8.650;2024-02-26T20:53:38;98782.50;;;9.49;96.76
43119;BME280;28729;49.838;8.650;2024-02-26T20:57:40;98789.91;;;9.48;97.06
43119;BME280;28729;49.838;8.650;2024-02-26T21:01:43;98791.84;;;9.53;96.68
43119;BME280;28729;49.838;8.650;2024-02-26T21:05:52;98798.47;;;9.57;96.68
43119;BME280;28729;49.838;8.650;2024-02-26T21:09:54;98803.16;;;9.56;97.18
43119;BME280;28729;49.838;8.650;2024-02-26T21:13:57;98812.50;;;9.61;96.99
43119;BME280;28729;49.838;8.650;2024-02-26T21:17:59;98814.69;;;9.53;97.27
43119;BME280;28729;49.838;8.650;2024-02-26T21:22:01;98816.88;;;9.51;97.72
43119;BME280;28729;49.838;8.650;2024-02-26T21:26:03;98832.56;;;9.56;98.06
43119;BME280;28729;49.838;8.650;2024-02-26T21:30:11;98827.91;;;9.56;97.85
43119;BME280;28729;49.838;8.650;2024-02-26T21:34:14;98849.59;;;9.53;98.24
43119;BME280;28729;49.838;8.650;2024-02-26T21:38:17;98853.38;;;9.42;98.99
43119;BME280;28729;49.838;8.650;2024-02-26T21:42:26;98862.47;;;9.42;98.94